Terminal Aerodrome Forecast
Issued by NWS Spokane, WA

Home | Current Version | Previous Version | Text Only | Print | Product List | Glossary On
Versions: 1 2 3 4 5 6 7 8 9 10 11 12 13 14 15 16 17 18 19 20 21 22 23 24 25
000
FTUS46 KOTX 040520
TAFLWS
TAF
KLWS 040520Z 0406/0506 16004KT P6SM FEW100
     FM041500 05003KT P6SM SCT200
     FM042000 31007KT P6SM SCT080 BKN150
     FM050300 29010KT P6SM VCSH SCT060 BKN100=

USA.gov is the U.S. government's official web portal to all federal, state and local government web resources and services.